createdAt,value
2022-09-07T00:02:47.860Z,0.50
2022-09-07T00:07:39.738Z,0.52
2022-09-07T00:12:31.457Z,1.13
2022-09-07T00:17:23.323Z,0.50
2022-09-07T00:22:15.039Z,0.55
2022-09-07T00:27:06.674Z,0.60
2022-09-07T00:31:58.303Z,0.60
2022-09-07T00:36:49.951Z,0.90
2022-09-07T00:41:41.632Z,0.40
2022-09-07T00:46:33.376Z,0.50
2022-09-07T00:51:39.755Z,0.60
2022-09-07T00:56:36.966Z,0.85
2022-09-07T01:01:29.477Z,0.55
2022-09-07T01:06:32.192Z,0.60
2022-09-07T01:11:24.105Z,0.50
2022-09-07T01:16:37.038Z,0.50
2022-09-07T01:21:59.201Z,0.43
2022-09-07T01:27:11.651Z,0.50
2022-09-07T01:32:11.590Z,0.75
2022-09-07T01:37:44.934Z,0.80
2022-09-07T01:42:47.930Z,0.60
2022-09-07T01:47:45.318Z,0.68
2022-09-07T01:52:58.296Z,0.55
2022-09-07T01:58:13.541Z,0.70
2022-09-07T02:03:15.198Z,0.50
2022-09-07T02:08:32.355Z,0.73
2022-09-07T02:13:31.658Z,0.50
2022-09-07T02:18:26.881Z,0.50
2022-09-07T02:23:23.220Z,0.50
2022-09-07T02:28:21.158Z,0.70
2022-09-07T02:38:06.453Z,0.50
2022-09-07T02:43:05.606Z,0.70
2022-09-07T02:48:15.292Z,0.80
2022-09-07T02:53:22.374Z,0.75
2022-09-07T02:58:35.081Z,0.60
2022-09-07T03:03:35.247Z,0.70
2022-09-07T03:08:30.986Z,0.57
2022-09-07T03:13:28.533Z,0.68
2022-09-07T03:18:20.715Z,1.00
2022-09-07T03:23:12.804Z,0.60
2022-09-07T03:28:04.969Z,0.88
2022-09-07T03:32:56.766Z,0.82
2022-09-07T03:37:48.492Z,0.90
2022-09-07T03:42:40.772Z,0.77
2022-09-07T03:47:34.903Z,0.80
2022-09-07T03:52:26.618Z,0.57
2022-09-07T03:57:20.315Z,0.85
2022-09-07T04:02:12.177Z,0.75
2022-09-07T04:07:04.092Z,0.68
2022-09-07T04:11:55.771Z,1.00
2022-09-07T04:16:48.760Z,0.80
2022-09-07T04:21:40.884Z,0.90
2022-09-07T04:26:35.625Z,0.70
2022-09-07T04:31:27.555Z,1.13
2022-09-07T04:36:20.522Z,1.10
2022-09-07T04:41:17.312Z,1.98
2022-09-07T04:46:30.067Z,0.85
2022-09-07T04:51:23.464Z,1.10
2022-09-07T04:56:17.054Z,1.33
2022-09-07T05:01:09.155Z,1.00
2022-09-07T05:06:02.230Z,0.93
2022-09-07T05:10:55.297Z,1.08
2022-09-07T05:15:47.073Z,1.40
2022-09-07T05:20:38.723Z,1.38
2022-09-07T05:25:31.517Z,1.70
2022-09-07T05:35:35.021Z,2.17
2022-09-07T05:40:26.706Z,2.78
2022-09-07T05:45:18.474Z,1.80
2022-09-07T05:50:10.745Z,1.90
2022-09-07T05:55:19.622Z,1.30
2022-09-07T06:00:14.737Z,1.35
2022-09-07T06:05:07.835Z,1.20
2022-09-07T06:15:11.653Z,1.50
2022-09-07T06:20:05.353Z,1.83
2022-09-07T06:24:56.981Z,1.70
2022-09-07T06:29:48.654Z,1.08
2022-09-07T06:34:40.317Z,1.52
2022-09-07T06:39:32.070Z,1.73
2022-09-07T06:44:23.791Z,2.10
2022-09-07T06:49:15.464Z,1.50
2022-09-07T06:59:18.872Z,2.00
2022-09-07T07:04:10.586Z,1.67
2022-09-07T07:09:03.348Z,1.13
2022-09-07T07:13:55.342Z,1.33
2022-09-07T07:18:52.170Z,0.82
2022-09-07T07:23:43.950Z,1.00
2022-09-07T07:33:48.359Z,0.82
2022-09-07T07:43:57.097Z,1.05
2022-09-07T07:48:49.113Z,1.45
2022-09-07T07:53:42.452Z,1.45
2022-09-07T07:58:36.424Z,1.25
2022-09-07T08:03:28.774Z,0.98
2022-09-07T08:08:21.046Z,0.98
2022-09-07T08:13:12.764Z,0.80
2022-09-07T08:18:04.404Z,1.17
2022-09-07T08:22:55.998Z,0.82
2022-09-07T08:27:47.594Z,0.70
2022-09-07T08:32:40.652Z,0.88
2022-09-07T08:37:32.603Z,1.20
2022-09-07T08:42:42.916Z,0.93
2022-09-07T08:47:41.319Z,1.15
2022-09-07T08:52:59.018Z,1.05
2022-09-07T08:58:17.698Z,1.15
2022-09-07T09:03:29.093Z,1.33
2022-09-07T09:08:36.779Z,0.80
2022-09-07T09:13:47.308Z,1.05
2022-09-07T09:19:00.679Z,0.93
2022-09-07T09:23:55.193Z,1.23
2022-09-07T09:28:46.928Z,1.05
2022-09-07T09:33:38.660Z,1.10
2022-09-07T09:38:34.691Z,0.73
2022-09-07T09:43:32.467Z,0.90
2022-09-07T09:48:37.430Z,0.75
2022-09-07T09:53:34.013Z,0.93
2022-09-07T10:08:59.495Z,0.70
2022-09-07T10:14:00.879Z,0.75
2022-09-07T10:18:58.759Z,0.68
2022-09-07T10:23:58.324Z,0.80
2022-09-07T10:29:26.293Z,0.90
2022-09-07T10:34:50.648Z,1.27
2022-09-07T10:40:00.932Z,0.80
2022-09-07T10:45:01.176Z,1.38
2022-09-07T10:55:40.233Z,0.73
2022-09-07T11:00:57.996Z,0.77
2022-09-07T11:11:12.317Z,0.80
2022-09-07T11:16:50.574Z,0.75
2022-09-07T11:26:49.435Z,0.60
2022-09-07T11:31:45.405Z,0.55
2022-09-07T11:36:46.293Z,0.70
2022-09-07T11:41:56.407Z,1.08
2022-09-07T11:46:51.529Z,0.55
2022-09-07T11:52:05.783Z,0.70
2022-09-07T11:57:14.891Z,0.70
2022-09-07T12:02:58.353Z,0.90
2022-09-07T12:07:59.584Z,0.60
2022-09-07T12:13:14.286Z,0.60
2022-09-07T12:18:36.882Z,0.85
2022-09-07T12:23:30.999Z,0.77
2022-09-07T12:28:25.472Z,0.63
2022-09-07T12:33:26.443Z,0.93
2022-09-07T12:38:18.122Z,0.60
2022-09-07T12:43:12.934Z,0.60
2022-09-07T12:48:16.610Z,1.00
2022-09-07T12:53:11.057Z,0.70
2022-09-07T12:58:28.265Z,0.52
2022-09-07T13:03:52.796Z,0.80
2022-09-07T13:08:53.473Z,0.40
2022-09-07T13:14:08.511Z,0.50
2022-09-07T13:19:02.867Z,0.60
2022-09-07T13:29:47.288Z,0.57
2022-09-07T13:35:00.953Z,0.50
2022-09-07T13:39:57.228Z,0.30
2022-09-07T13:44:55.524Z,0.40
2022-09-07T13:50:11.757Z,0.40
2022-09-07T13:55:32.404Z,0.45
2022-09-07T14:00:24.743Z,0.50
2022-09-07T14:05:20.383Z,0.40
2022-09-07T14:10:19.600Z,0.30
2022-09-07T14:15:17.364Z,0.30
2022-09-07T14:20:14.378Z,0.50
2022-09-07T14:25:07.758Z,0.30
2022-09-07T14:30:35.051Z,0.30
2022-09-07T14:35:33.942Z,0.30
2022-09-07T14:40:26.735Z,0.30
2022-09-07T14:45:23.972Z,0.30
2022-09-07T14:55:35.997Z,0.40
2022-09-07T15:00:32.120Z,0.40
2022-09-07T15:05:29.776Z,0.40
2022-09-07T15:10:21.354Z,0.40
2022-09-07T15:15:21.456Z,0.40
2022-09-07T15:20:39.718Z,0.30
2022-09-07T15:25:32.395Z,0.40
2022-09-07T15:30:25.380Z,0.40
2022-09-07T15:35:16.965Z,0.13
2022-09-07T15:40:21.933Z,0.20
2022-09-07T15:45:14.504Z,0.10
2022-09-07T15:50:07.732Z,0.10
2022-09-07T15:54:59.739Z,0.10
2022-09-07T15:59:51.298Z,0.20
2022-09-07T16:04:43.215Z,0.10
2022-09-07T16:09:37.757Z,0.13
2022-09-07T16:14:29.662Z,0.20
2022-09-07T16:19:21.476Z,0.20
2022-09-07T16:24:13.079Z,0.30
2022-09-07T16:29:04.818Z,0.30
2022-09-07T16:33:56.837Z,0.20
2022-09-07T16:38:48.741Z,0.25
2022-09-07T16:43:40.428Z,0.30
2022-09-07T16:48:34.182Z,0.30
2022-09-07T16:53:25.946Z,0.28
2022-09-07T17:03:29.985Z,0.40
2022-09-07T17:08:21.860Z,0.40
2022-09-07T17:13:13.481Z,0.40
2022-09-07T17:18:05.245Z,0.50
2022-09-07T17:22:56.842Z,0.50
2022-09-07T17:27:48.796Z,0.30
2022-09-07T17:32:40.729Z,0.40
2022-09-07T17:37:32.565Z,0.60
2022-09-07T17:43:38.796Z,0.40
2022-09-07T17:47:39.574Z,0.45
2022-09-07T17:52:31.240Z,0.30
2022-09-07T17:57:22.977Z,0.30
2022-09-07T18:02:14.582Z,0.40
2022-09-07T18:07:06.141Z,0.30
2022-09-07T18:11:57.718Z,0.30
2022-09-07T18:16:50.395Z,0.38
2022-09-07T18:21:43.630Z,0.30
2022-09-07T18:26:40.042Z,0.40
2022-09-07T18:31:31.819Z,0.35
2022-09-07T18:36:25.199Z,0.40
2022-09-07T18:41:16.963Z,0.40
2022-09-07T18:46:17.961Z,0.40
2022-09-07T18:51:10.693Z,0.30
2022-09-07T18:56:09.973Z,0.40
2022-09-07T19:01:14.576Z,0.68
2022-09-07T19:06:09.914Z,0.30
2022-09-07T19:11:06.713Z,0.30
2022-09-07T19:16:13.643Z,0.40
2022-09-07T19:21:07.628Z,0.50
2022-09-07T19:26:01.445Z,0.60
2022-09-07T19:30:53.733Z,0.60
2022-09-07T19:35:45.383Z,0.50
2022-09-07T19:40:37.212Z,0.68
2022-09-07T19:45:29.126Z,0.47
2022-09-07T19:50:22.194Z,0.40
2022-09-07T19:55:14.431Z,0.63
2022-09-07T20:00:06.797Z,0.60
2022-09-07T20:04:58.824Z,0.43
2022-09-07T20:09:51.781Z,0.50
2022-09-07T20:14:43.517Z,0.75
2022-09-07T20:19:35.188Z,0.50
2022-09-07T20:24:26.913Z,0.50
2022-09-07T20:29:33.831Z,0.40
2022-09-07T20:34:26.908Z,0.40
2022-09-07T20:39:19.365Z,0.50
2022-09-07T20:44:11.047Z,0.68
2022-09-07T20:49:03.214Z,0.60
2022-09-07T20:53:55.923Z,0.80
2022-09-07T20:58:49.022Z,0.70
2022-09-07T21:03:48.553Z,0.50
2022-09-07T21:08:42.781Z,0.52
2022-09-07T21:13:35.377Z,0.73
2022-09-07T21:18:26.939Z,0.70
2022-09-07T21:23:18.902Z,0.55
2022-09-07T21:28:10.510Z,0.60
2022-09-07T21:33:03.247Z,0.60
2022-09-07T21:37:55.278Z,0.70
2022-09-07T21:42:46.864Z,0.70
2022-09-07T21:47:38.493Z,0.68
2022-09-07T21:52:30.037Z,0.70
2022-09-07T21:57:21.615Z,1.55
2022-09-07T22:02:13.201Z,0.65
2022-09-07T22:07:05.019Z,0.70
2022-09-07T22:11:56.619Z,1.05
2022-09-07T22:16:48.202Z,0.60
2022-09-07T22:21:42.071Z,0.60
2022-09-07T22:26:39.498Z,0.70
2022-09-07T22:31:33.796Z,1.00
2022-09-07T22:36:28.394Z,0.60
2022-09-07T22:41:22.643Z,1.00
2022-09-07T22:46:14.931Z,0.77
2022-09-07T22:51:07.971Z,0.70
2022-09-07T22:56:00.639Z,1.05
2022-09-07T23:00:52.851Z,1.00
2022-09-07T23:05:44.437Z,0.95
2022-09-07T23:10:36.871Z,0.80
2022-09-07T23:15:28.657Z,1.17
2022-09-07T23:20:20.233Z,0.85
2022-09-07T23:25:11.883Z,1.08
2022-09-07T23:30:04.691Z,0.80
2022-09-07T23:34:56.308Z,0.98
2022-09-07T23:39:47.925Z,0.80
2022-09-07T23:44:39.526Z,0.98
2022-09-07T23:49:31.101Z,0.65
2022-09-07T23:54:22.706Z,0.82
2022-09-07T23:59:14.378Z,0.95
